sensor_id;sensor_type;location;lat;lon;timestamp;pressure;altitude;pressure_sealevel;temperature;humidity
6216;BME280;3141;49.234;9.326;2022-11-15T00:00:35;99428.38;;;12.97;81.51
6216;BME280;3141;49.234;9.326;2022-11-15T00:01:18;99431.72;;;12.91;81.68
6216;BME280;3141;49.234;9.326;2022-11-15T00:02:01;99431.53;;;12.93;81.49
6216;BME280;3141;49.234;9.326;2022-11-15T00:02:46;99434.75;;;12.88;81.88
6216;BME280;3141;49.234;9.326;2022-11-15T00:03:28;99431.78;;;12.83;82.38
6216;BME280;3141;49.234;9.326;2022-11-15T00:04:11;99429.19;;;12.75;82.43
6216;BME280;3141;49.234;9.326;2022-11-15T00:04:53;99432.16;;;12.80;82.33
6216;BME280;3141;49.234;9.326;2022-11-15T00:05:35;99434.44;;;12.83;82.21
6216;BME280;3141;49.234;9.326;2022-11-15T00:06:18;99440.41;;;12.85;82.08
6216;BME280;3141;49.234;9.326;2022-11-15T00:07:00;99430.97;;;12.82;82.48
6216;BME280;3141;49.234;9.326;2022-11-15T00:07:43;99431.06;;;12.89;81.95
6216;BME280;3141;49.234;9.326;2022-11-15T00:08:29;99436.91;;;12.85;82.38
6216;BME280;3141;49.234;9.326;2022-11-15T00:09:12;99439.38;;;12.86;82.22
6216;BME280;3141;49.234;9.326;2022-11-15T00:09:54;99437.78;;;12.77;82.58
6216;BME280;3141;49.234;9.326;2022-11-15T00:10:37;99429.31;;;12.82;82.80
6216;BME280;3141;49.234;9.326;2022-11-15T00:11:19;99433.56;;;12.91;82.24
6216;BME280;3141;49.234;9.326;2022-11-15T00:12:02;99434.75;;;12.88;82.04
6216;BME280;3141;49.234;9.326;2022-11-15T00:12:44;99428.09;;;12.92;82.04
6216;BME280;3141;49.234;9.326;2022-11-15T00:13:27;99435.09;;;12.85;82.18
6216;BME280;3141;49.234;9.326;2022-11-15T00:14:09;99429.06;;;12.91;82.07
6216;BME280;3141;49.234;9.326;2022-11-15T00:14:52;99423.44;;;12.94;81.90
6216;BME280;3141;49.234;9.326;2022-11-15T00:15:38;99433.69;;;12.97;81.66
6216;BME280;3141;49.234;9.326;2022-11-15T00:16:21;99427.69;;;13.03;81.51
6216;BME280;3141;49.234;9.326;2022-11-15T00:17:03;99428.75;;;12.94;81.68
6216;BME280;3141;49.234;9.326;2022-11-15T00:17:49;99419.75;;;12.95;81.80
6216;BME280;3141;49.234;9.326;2022-11-15T00:18:31;99429.53;;;12.95;81.83
6216;BME280;3141;49.234;9.326;2022-11-15T00:19:14;99422.25;;;12.97;81.76
6216;BME280;3141;49.234;9.326;2022-11-15T00:19:56;99425.38;;;13.00;81.90
6216;BME280;3141;49.234;9.326;2022-11-15T00:20:39;99423.06;;;12.97;81.51
6216;BME280;3141;49.234;9.326;2022-11-15T00:21:21;99427.50;;;13.05;81.35
6216;BME280;3141;49.234;9.326;2022-11-15T00:22:03;99419.41;;;12.98;81.73
6216;BME280;3141;49.234;9.326;2022-11-15T00:22:46;99421.69;;;13.01;81.94
6216;BME280;3141;49.234;9.326;2022-11-15T00:23:28;99421.06;;;12.99;81.70
6216;BME280;3141;49.234;9.326;2022-11-15T00:24:10;99415.47;;;12.94;81.92
6216;BME280;3141;49.234;9.326;2022-11-15T00:24:53;99410.78;;;12.96;81.84
6216;BME280;3141;49.234;9.326;2022-11-15T00:25:35;99413.13;;;12.99;81.74
6216;BME280;3141;49.234;9.326;2022-11-15T00:26:18;99422.38;;;13.03;81.85
6216;BME280;3141;49.234;9.326;2022-11-15T00:27:00;99412.59;;;13.04;81.31
6216;BME280;3141;49.234;9.326;2022-11-15T00:27:42;99422.34;;;13.11;81.46
6216;BME280;3141;49.234;9.326;2022-11-15T00:28:25;99421.31;;;13.12;81.20
6216;BME280;3141;49.234;9.326;2022-11-15T00:29:08;99417.91;;;13.04;81.60
6216;BME280;3141;49.234;9.326;2022-11-15T00:29:50;99416.28;;;13.03;81.62
6216;BME280;3141;49.234;9.326;2022-11-15T00:30:32;99422.56;;;13.02;81.72
6216;BME280;3141;49.234;9.326;2022-11-15T00:31:15;99414.75;;;13.00;81.50
6216;BME280;3141;49.234;9.326;2022-11-15T00:31:57;99419.66;;;12.89;82.54
6216;BME280;3141;49.234;9.326;2022-11-15T00:32:39;99418.47;;;12.91;82.57
6216;BME280;3141;49.234;9.326;2022-11-15T00:33:22;99421.28;;;12.90;82.12
6216;BME280;3141;49.234;9.326;2022-11-15T00:34:04;99410.03;;;12.88;82.00
6216;BME280;3141;49.234;9.326;2022-11-15T00:34:46;99409.31;;;12.71;83.27
6216;BME280;3141;49.234;9.326;2022-11-15T00:35:32;99414.22;;;12.82;82.68
6216;BME280;3141;49.234;9.326;2022-11-15T00:36:15;99418.22;;;12.78;82.69
6216;BME280;3141;49.234;9.326;2022-11-15T00:36:57;99411.50;;;12.67;82.84
6216;BME280;3141;49.234;9.326;2022-11-15T00:37:40;99416.69;;;12.61;83.33
6216;BME280;3141;49.234;9.326;2022-11-15T00:38:22;99408.56;;;12.62;83.21
6216;BME280;3141;49.234;9.326;2022-11-15T00:39:04;99411.75;;;12.58;83.62
6216;BME280;3141;49.234;9.326;2022-11-15T00:39:51;99415.00;;;12.60;83.49
6216;BME280;3141;49.234;9.326;2022-11-15T00:40:34;99407.25;;;12.58;83.22
6216;BME280;3141;49.234;9.326;2022-11-15T00:41:16;99416.97;;;12.66;83.15
6216;BME280;3141;49.234;9.326;2022-11-15T00:41:58;99410.19;;;12.63;83.42
6216;BME280;3141;49.234;9.326;2022-11-15T00:42:41;99412.53;;;12.58;83.35
6216;BME280;3141;49.234;9.326;2022-11-15T00:43:23;99403.31;;;12.54;83.18
6216;BME280;3141;49.234;9.326;2022-11-15T00:44:06;99407.59;;;12.55;83.52
6216;BME280;3141;49.234;9.326;2022-11-15T00:44:48;99405.13;;;12.54;83.81
6216;BME280;3141;49.234;9.326;2022-11-15T00:45:30;99404.59;;;12.58;83.73
6216;BME280;3141;49.234;9.326;2022-11-15T00:46:13;99410.38;;;12.62;83.43
6216;BME280;3141;49.234;9.326;2022-11-15T00:46:55;99404.88;;;12.63;83.45
6216;BME280;3141;49.234;9.326;2022-11-15T00:47:37;99408.66;;;12.69;83.04
6216;BME280;3141;49.234;9.326;2022-11-15T00:48:20;99401.91;;;12.66;83.03
6216;BME280;3141;49.234;9.326;2022-11-15T00:49:02;99402.53;;;12.68;83.00
6216;BME280;3141;49.234;9.326;2022-11-15T00:49:44;99403.63;;;12.51;83.73
6216;BME280;3141;49.234;9.326;2022-11-15T00:50:27;99410.44;;;12.54;83.86
6216;BME280;3141;49.234;9.326;2022-11-15T00:51:09;99399.66;;;12.55;83.84
6216;BME280;3141;49.234;9.326;2022-11-15T00:51:51;99408.75;;;12.53;83.72
6216;BME280;3141;49.234;9.326;2022-11-15T00:52:34;99402.28;;;12.55;84.15
6216;BME280;3141;49.234;9.326;2022-11-15T00:53:17;99406.72;;;12.63;83.90
6216;BME280;3141;49.234;9.326;2022-11-15T00:53:59;99405.19;;;12.68;83.11
6216;BME280;3141;49.234;9.326;2022-11-15T00:54:41;99402.19;;;12.71;82.91
6216;BME280;3141;49.234;9.326;2022-11-15T00:55:23;99396.72;;;12.73;83.05
6216;BME280;3141;49.234;9.326;2022-11-15T00:56:06;99396.53;;;12.74;82.75
6216;BME280;3141;49.234;9.326;2022-11-15T00:56:48;99405.53;;;12.65;82.92
6216;BME280;3141;49.234;9.326;2022-11-15T00:57:31;99403.47;;;12.75;82.94
6216;BME280;3141;49.234;9.326;2022-11-15T00:58:13;99402.31;;;12.78;82.76
6216;BME280;3141;49.234;9.326;2022-11-15T00:58:55;99407.16;;;12.74;82.44
6216;BME280;3141;49.234;9.326;2022-11-15T00:59:38;99396.91;;;12.71;82.83
6216;BME280;3141;49.234;9.326;2022-11-15T01:00:20;99396.28;;;12.61;82.98
6216;BME280;3141;49.234;9.326;2022-11-15T01:01:10;99398.31;;;12.59;83.03
6216;BME280;3141;49.234;9.326;2022-11-15T01:01:53;99405.72;;;12.64;83.45
6216;BME280;3141;49.234;9.326;2022-11-15T01:02:36;99395.69;;;12.74;82.75
6216;BME280;3141;49.234;9.326;2022-11-15T01:03:18;99401.84;;;12.74;82.97
6216;BME280;3141;49.234;9.326;2022-11-15T01:04:00;99401.66;;;12.76;82.55
6216;BME280;3141;49.234;9.326;2022-11-15T01:04:43;99397.06;;;12.70;82.90
6216;BME280;3141;49.234;9.326;2022-11-15T01:05:25;99394.34;;;12.78;82.70
6216;BME280;3141;49.234;9.326;2022-11-15T01:06:08;99398.13;;;12.84;82.05
6216;BME280;3141;49.234;9.326;2022-11-15T01:06:50;99397.47;;;12.82;82.02
6216;BME280;3141;49.234;9.326;2022-11-15T01:07:33;99398.31;;;12.82;81.97
6216;BME280;3141;49.234;9.326;2022-11-15T01:08:16;99397.69;;;12.72;82.41
6216;BME280;3141;49.234;9.326;2022-11-15T01:08:58;99400.66;;;12.77;82.28
6216;BME280;3141;49.234;9.326;2022-11-15T01:09:41;99395.00;;;12.80;82.15
6216;BME280;3141;49.234;9.326;2022-11-15T01:10:23;99390.41;;;12.74;82.44
6216;BME280;3141;49.234;9.326;2022-11-15T01:11:10;99389.56;;;12.73;82.64
6216;BME280;3141;49.234;9.326;2022-11-15T01:11:53;99397.69;;;12.72;82.21
6216;BME280;3141;49.234;9.326;2022-11-15T01:12:35;99387.09;;;12.72;82.51
6216;BME280;3141;49.234;9.326;2022-11-15T01:13:18;99385.16;;;12.66;82.86
6216;BME280;3141;49.234;9.326;2022-11-15T01:14:00;99386.78;;;12.67;82.93
6216;BME280;3141;49.234;9.326;2022-11-15T01:14:42;99380.03;;;12.64;82.83
6216;BME280;3141;49.234;9.326;2022-11-15T01:15:25;99391.13;;;12.68;82.81
6216;BME280;3141;49.234;9.326;2022-11-15T01:16:13;99389.16;;;12.62;82.74
6216;BME280;3141;49.234;9.326;2022-11-15T01:16:56;99389.81;;;12.64;82.45
6216;BME280;3141;49.234;9.326;2022-11-15T01:17:38;99379.91;;;12.58;83.18
6216;BME280;3141;49.234;9.326;2022-11-15T01:18:21;99376.91;;;12.61;82.84
6216;BME280;3141;49.234;9.326;2022-11-15T01:19:03;99382.56;;;12.58;83.26
6216;BME280;3141;49.234;9.326;2022-11-15T01:19:45;99381.25;;;12.54;83.32
6216;BME280;3141;49.234;9.326;2022-11-15T01:20:28;99384.28;;;12.51;83.19
6216;BME280;3141;49.234;9.326;2022-11-15T01:21:13;99378.59;;;12.54;82.98
6216;BME280;3141;49.234;9.326;2022-11-15T01:21:56;99370.69;;;12.46;83.17
6216;BME280;3141;49.234;9.326;2022-11-15T01:22:38;99370.38;;;12.41;83.49
6216;BME280;3141;49.234;9.326;2022-11-15T01:23:20;99372.91;;;12.34;83.92
6216;BME280;3141;49.234;9.326;2022-11-15T01:24:03;99368.44;;;12.35;84.05
6216;BME280;3141;49.234;9.326;2022-11-15T01:24:45;99370.44;;;12.33;84.38
6216;BME280;3141;49.234;9.326;2022-11-15T01:25:28;99367.25;;;12.37;83.79
6216;BME280;3141;49.234;9.326;2022-11-15T01:26:12;99368.81;;;12.32;84.18
6216;BME280;3141;49.234;9.326;2022-11-15T01:26:54;99368.81;;;12.32;83.88
6216;BME280;3141;49.234;9.326;2022-11-15T01:27:37;99367.97;;;12.31;83.79
6216;BME280;3141;49.234;9.326;2022-11-15T01:28:19;99360.69;;;12.33;83.80
6216;BME280;3141;49.234;9.326;2022-11-15T01:29:01;99357.72;;;12.28;83.97
6216;BME280;3141;49.234;9.326;2022-11-15T01:29:44;99361.91;;;12.23;84.29
6216;BME280;3141;49.234;9.326;2022-11-15T01:30:26;99362.56;;;12.25;83.87
6216;BME280;3141;49.234;9.326;2022-11-15T01:31:14;99362.19;;;12.28;83.96
6216;BME280;3141;49.234;9.326;2022-11-15T01:31:56;99353.59;;;12.26;84.18
6216;BME280;3141;49.234;9.326;2022-11-15T01:32:39;99364.06;;;12.19;84.23
6216;BME280;3141;49.234;9.326;2022-11-15T01:33:21;99354.91;;;12.22;84.36
6216;BME280;3141;49.234;9.326;2022-11-15T01:34:03;99357.94;;;12.19;84.39
6216;BME280;3141;49.234;9.326;2022-11-15T01:34:46;99355.28;;;12.19;84.21
6216;BME280;3141;49.234;9.326;2022-11-15T01:35:28;99352.13;;;12.23;83.79
6216;BME280;3141;49.234;9.326;2022-11-15T01:36:16;99351.97;;;12.17;83.95
6216;BME280;3141;49.234;9.326;2022-11-15T01:36:58;99354.44;;;12.18;84.20
6216;BME280;3141;49.234;9.326;2022-11-15T01:37:41;99355.47;;;12.17;84.34
6216;BME280;3141;49.234;9.326;2022-11-15T01:38:23;99355.47;;;12.17;84.01
6216;BME280;3141;49.234;9.326;2022-11-15T01:39:05;99357.94;;;12.19;83.74
6216;BME280;3141;49.234;9.326;2022-11-15T01:39:48;99363.94;;;12.13;84.11
6216;BME280;3141;49.234;9.326;2022-11-15T01:40:30;99354.38;;;12.04;84.68
6216;BME280;3141;49.234;9.326;2022-11-15T01:41:23;99356.16;;;12.11;84.41
6216;BME280;3141;49.234;9.326;2022-11-15T01:42:05;99360.31;;;12.06;84.62
6216;BME280;3141;49.234;9.326;2022-11-15T01:42:48;99354.66;;;12.09;84.22
6216;BME280;3141;49.234;9.326;2022-11-15T01:43:33;99344.91;;;12.09;84.31
6216;BME280;3141;49.234;9.326;2022-11-15T01:45:16;99349.38;;;12.09;84.12
6216;BME280;3141;49.234;9.326;2022-11-15T01:46:03;99350.53;;;12.06;84.23
6216;BME280;3141;49.234;9.326;2022-11-15T01:46:47;99347.75;;;12.00;84.05
6216;BME280;3141;49.234;9.326;2022-11-15T01:47:40;99347.63;;;11.93;84.29
6216;BME280;3141;49.234;9.326;2022-11-15T01:48:27;99344.84;;;11.79;85.30
6216;BME280;3141;49.234;9.326;2022-11-15T01:49:15;99341.53;;;11.85;85.85
6216;BME280;3141;49.234;9.326;2022-11-15T01:50:05;99347.66;;;11.85;85.25
6216;BME280;3141;49.234;9.326;2022-11-15T01:50:49;99346.66;;;11.86;85.27
6216;BME280;3141;49.234;9.326;2022-11-15T01:51:33;99349.47;;;11.85;85.25
6216;BME280;3141;49.234;9.326;2022-11-15T01:52:19;99350.69;;;11.74;85.90
6216;BME280;3141;49.234;9.326;2022-11-15T01:53:03;99349.03;;;11.65;86.54
6216;BME280;3141;49.234;9.326;2022-11-15T01:53:48;99346.72;;;11.70;86.88
6216;BME280;3141;49.234;9.326;2022-11-15T01:54:31;99346.53;;;11.80;86.68
6216;BME280;3141;49.234;9.326;2022-11-15T01:55:20;99345.81;;;11.86;85.77
6216;BME280;3141;49.234;9.326;2022-11-15T01:56:05;99352.44;;;11.90;84.98
6216;BME280;3141;49.234;9.326;2022-11-15T01:57:01;99348.88;;;11.75;85.64
6216;BME280;3141;49.234;9.326;2022-11-15T01:57:48;99346.53;;;11.80;85.58
6216;BME280;3141;49.234;9.326;2022-11-15T01:58:32;99348.81;;;11.83;84.97
6216;BME280;3141;49.234;9.326;2022-11-15T01:59:15;99339.09;;;11.75;85.09
6216;BME280;3141;49.234;9.326;2022-11-15T01:59:59;99343.91;;;11.72;85.40
6216;BME280;3141;49.234;9.326;2022-11-15T02:00:42;99343.91;;;11.72;85.63
6216;BME280;3141;49.234;9.326;2022-11-15T02:01:26;99345.56;;;11.73;85.49
6216;BME280;3141;49.234;9.326;2022-11-15T02:02:08;99347.19;;;11.74;85.32
6216;BME280;3141;49.234;9.326;2022-11-15T02:02:51;99348.53;;;11.61;86.03
6216;BME280;3141;49.234;9.326;2022-11-15T02:04:31;99341.94;;;11.66;86.07
6216;BME280;3141;49.234;9.326;2022-11-15T02:05:14;99342.25;;;11.71;85.36
6216;BME280;3141;49.234;9.326;2022-11-15T02:05:57;99338.13;;;11.68;85.26
6216;BME280;3141;49.234;9.326;2022-11-15T02:06:41;99346.22;;;11.67;84.90
6216;BME280;3141;49.234;9.326;2022-11-15T02:07:25;99338.81;;;11.54;86.19
6216;BME280;3141;49.234;9.326;2022-11-15T02:08:08;99339.31;;;11.41;86.88
6216;BME280;3141;49.234;9.326;2022-11-15T02:09:02;99335.84;;;11.41;87.53
6216;BME280;3141;49.234;9.326;2022-11-15T02:09:45;99334.72;;;11.27;88.10
6216;BME280;3141;49.234;9.326;2022-11-15T02:10:28;99341.19;;;11.17;88.94
6216;BME280;3141;49.234;9.326;2022-11-15T02:11:11;99341.34;;;11.23;89.17
6216;BME280;3141;49.234;9.326;2022-11-15T02:11:53;99331.09;;;11.28;88.94
6216;BME280;3141;49.234;9.326;2022-11-15T02:12:36;99334.38;;;11.30;88.63
6216;BME280;3141;49.234;9.326;2022-11-15T02:13:19;99339.50;;;11.40;88.00
6216;BME280;3141;49.234;9.326;2022-11-15T02:14:03;99338.88;;;11.30;88.02
6216;BME280;3141;49.234;9.326;2022-11-15T02:14:52;99338.69;;;11.31;88.25
6216;BME280;3141;49.234;9.326;2022-11-15T02:15:42;99344.13;;;11.38;87.87
6216;BME280;3141;49.234;9.326;2022-11-15T02:18:34;99338.97;;;11.44;87.35
6216;BME280;3141;49.234;9.326;2022-11-15T02:20:39;99334.97;;;11.56;86.25
6216;BME280;3141;49.234;9.326;2022-11-15T02:21:39;99333.50;;;11.54;86.26
6216;BME280;3141;49.234;9.326;2022-11-15T02:31:16;99327.69;;;11.75;84.79
6216;BME280;3141;49.234;9.326;2022-11-15T02:32:20;99320.72;;;11.74;84.99
6216;BME280;3141;49.234;9.326;2022-11-15T02:35:12;99322.72;;;11.72;84.80
6216;BME280;3141;49.234;9.326;2022-11-15T02:36:56;99322.38;;;11.75;84.63
6216;BME280;3141;49.234;9.326;2022-11-15T02:37:42;99322.50;;;11.81;84.46
6216;BME280;3141;49.234;9.326;2022-11-15T02:40:11;99317.09;;;11.75;84.87
6216;BME280;3141;49.234;9.326;2022-11-15T02:40:59;99316.94;;;11.68;84.97
6216;BME280;3141;49.234;9.326;2022-11-15T02:41:57;99311.66;;;11.68;84.87
6216;BME280;3141;49.234;9.326;2022-11-15T02:42:53;99314.78;;;11.72;84.57
6216;BME280;3141;49.234;9.326;2022-11-15T02:44:15;99320.09;;;11.72;84.43
6216;BME280;3141;49.234;9.326;2022-11-15T02:45:03;99312.66;;;11.59;84.89
6216;BME280;3141;49.234;9.326;2022-11-15T02:45:52;99313.47;;;11.59;85.09
6216;BME280;3141;49.234;9.326;2022-11-15T02:47:47;99313.00;;;11.64;84.96
6216;BME280;3141;49.234;9.326;2022-11-15T02:48:32;99311.97;;;11.65;84.60
6216;BME280;3141;49.234;9.326;2022-11-15T02:49:16;99315.28;;;11.67;84.86
6216;BME280;3141;49.234;9.326;2022-11-15T02:50:07;99307.00;;;11.62;85.07
6216;BME280;3141;49.234;9.326;2022-11-15T02:50:51;99307.34;;;11.67;84.92
6216;BME280;3141;49.234;9.326;2022-11-15T02:51:34;99317.25;;;11.73;84.56
6216;BME280;3141;49.234;9.326;2022-11-15T02:52:22;99315.78;;;11.71;84.22
6216;BME280;3141;49.234;9.326;2022-11-15T02:53:04;99315.47;;;11.66;84.62
6216;BME280;3141;49.234;9.326;2022-11-15T02:53:47;99317.41;;;11.63;84.36
6216;BME280;3141;49.234;9.326;2022-11-15T02:54:32;99315.94;;;11.61;84.71
6216;BME280;3141;49.234;9.326;2022-11-15T02:55:32;99309.69;;;11.54;84.72
6216;BME280;3141;49.234;9.326;2022-11-15T02:56:15;99303.72;;;11.52;84.92
6216;BME280;3141;49.234;9.326;2022-11-15T02:57:04;99307.22;;;11.52;85.03
6216;BME280;3141;49.234;9.326;2022-11-15T02:59:15;99311.19;;;11.48;84.71
6216;BME280;3141;49.234;9.326;2022-11-15T03:00:19;99304.25;;;11.39;84.77
6216;BME280;3141;49.234;9.326;2022-11-15T03:01:15;99307.44;;;11.35;84.99
6216;BME280;3141;49.234;9.326;2022-11-15T03:05:23;99301.03;;;11.05;86.23
6216;BME280;3141;49.234;9.326;2022-11-15T03:06:30;99298.41;;;11.05;86.37
6216;BME280;3141;49.234;9.326;2022-11-15T03:07:24;99296.59;;;11.06;86.11
6216;BME280;3141;49.234;9.326;2022-11-15T03:10:30;99296.91;;;11.11;85.29
6216;BME280;3141;49.234;9.326;2022-11-15T03:11:17;99297.88;;;11.10;85.87
6216;BME280;3141;49.234;9.326;2022-11-15T03:12:11;99295.41;;;11.08;85.62
6216;BME280;3141;49.234;9.326;2022-11-15T03:13:26;99294.41;;;11.01;85.62
6216;BME280;3141;49.234;9.326;2022-11-15T03:14:24;99291.81;;;10.93;86.39
6216;BME280;3141;49.234;9.326;2022-11-15T03:15:18;99292.97;;;10.83;86.74
6216;BME280;3141;49.234;9.326;2022-11-15T03:17:29;99296.44;;;10.91;86.87
6216;BME280;3141;49.234;9.326;2022-11-15T03:18:21;99297.09;;;10.85;87.82
6216;BME280;3141;49.234;9.326;2022-11-15T03:20:08;99297.25;;;11.00;87.04
6216;BME280;3141;49.234;9.326;2022-11-15T03:20:53;99301.72;;;10.91;87.03
6216;BME280;3141;49.234;9.326;2022-11-15T03:21:37;99304.03;;;10.94;87.82
6216;BME280;3141;49.234;9.326;2022-11-15T03:22:24;99302.34;;;11.01;87.16
6216;BME280;3141;49.234;9.326;2022-11-15T03:23:10;99303.69;;;11.05;86.77
6216;BME280;3141;49.234;9.326;2022-11-15T03:23:54;99306.31;;;11.13;86.65
6216;BME280;3141;49.234;9.326;2022-11-15T03:24:38;99296.91;;;11.11;86.26
6216;BME280;3141;49.234;9.326;2022-11-15T03:25:22;99296.75;;;11.04;86.50
6216;BME280;3141;49.234;9.326;2022-11-15T03:26:12;99288.81;;;11.04;86.21
6216;BME280;3141;49.234;9.326;2022-11-15T03:26:56;99294.09;;;11.12;85.98
6216;BME280;3141;49.234;9.326;2022-11-15T03:27:44;99295.41;;;11.16;85.91
6216;BME280;3141;49.234;9.326;2022-11-15T03:28:35;99298.06;;;11.16;85.52
6216;BME280;3141;49.234;9.326;2022-11-15T03:29:24;99293.91;;;11.14;85.71
6216;BME280;3141;49.234;9.326;2022-11-15T03:30:10;99300.53;;;11.10;85.90
6216;BME280;3141;49.234;9.326;2022-11-15T03:30:54;99288.78;;;11.12;85.70
6216;BME280;3141;49.234;9.326;2022-11-15T03:31:40;99290.59;;;11.12;85.54
6216;BME280;3141;49.234;9.326;2022-11-15T03:32:31;99292.28;;;11.13;85.46
6216;BME280;3141;49.234;9.326;2022-11-15T03:33:17;99287.47;;;11.08;85.82
6216;BME280;3141;49.234;9.326;2022-11-15T03:34:04;99285.84;;;11.07;85.52
6216;BME280;3141;49.234;9.326;2022-11-15T03:34:55;99281.69;;;11.13;85.53
6216;BME280;3141;49.234;9.326;2022-11-15T03:35:42;99284.81;;;11.16;85.37
6216;BME280;3141;49.234;9.326;2022-11-15T03:36:26;99278.38;;;11.03;85.31
6216;BME280;3141;49.234;9.326;2022-11-15T03:37:10;99279.03;;;11.05;85.91
6216;BME280;3141;49.234;9.326;2022-11-15T03:37:59;99279.38;;;11.02;85.93
6216;BME280;3141;49.234;9.326;2022-11-15T03:38:44;99274.91;;;11.10;85.79
6216;BME280;3141;49.234;9.326;2022-11-15T03:39:27;99271.59;;;11.16;85.34
6216;BME280;3141;49.234;9.326;2022-11-15T03:40:11;99271.25;;;11.19;85.52
6216;BME280;3141;49.234;9.326;2022-11-15T03:41:01;99274.06;;;11.18;85.35
6216;BME280;3141;49.234;9.326;2022-11-15T03:43:05;99268.47;;;11.13;85.67
6216;BME280;3141;49.234;9.326;2022-11-15T03:43:56;99269.94;;;11.15;85.26
6216;BME280;3141;49.234;9.326;2022-11-15T03:44:58;99267.78;;;11.19;85.47
6216;BME280;3141;49.234;9.326;2022-11-15T03:45:46;99260.84;;;11.18;85.61
6216;BME280;3141;49.234;9.326;2022-11-15T03:47:00;99273.88;;;11.27;84.79
6216;BME280;3141;49.234;9.326;2022-11-15T03:48:16;99271.22;;;11.27;84.79
6216;BME280;3141;49.234;9.326;2022-11-15T03:50:03;99264.78;;;11.30;84.71
6216;BME280;3141;49.234;9.326;2022-11-15T03:50:17;99262.78;;;11.32;84.73
6216;BME280;3141;49.234;9.326;2022-11-15T03:51:01;99272.53;;;11.31;84.31
6216;BME280;3141;49.234;9.326;2022-11-15T03:51:44;99266.75;;;11.28;84.45
6216;BME280;3141;49.234;9.326;2022-11-15T03:52:31;99274.53;;;11.29;84.68
6216;BME280;3141;49.234;9.326;2022-11-15T03:53:15;99274.22;;;11.24;84.60
6216;BME280;3141;49.234;9.326;2022-11-15T03:53:57;99271.09;;;11.21;84.58
6216;BME280;3141;49.234;9.326;2022-11-15T03:54:49;99266.13;;;11.18;85.36
6216;BME280;3141;49.234;9.326;2022-11-15T03:55:34;99266.81;;;11.20;84.99
6216;BME280;3141;49.234;9.326;2022-11-15T03:56:16;99270.56;;;11.25;85.24
6216;BME280;3141;49.234;9.326;2022-11-15T03:56:58;99276.16;;;11.30;85.06
6216;BME280;3141;49.234;9.326;2022-11-15T03:57:41;99275.53;;;11.28;84.84
6216;BME280;3141;49.234;9.326;2022-11-15T03:58:23;99274.88;;;11.26;84.93
6216;BME280;3141;49.234;9.326;2022-11-15T03:59:05;99267.91;;;11.25;85.34
6216;BME280;3141;49.234;9.326;2022-11-15T03:59:48;99274.53;;;11.29;85.30
6216;BME280;3141;49.234;9.326;2022-11-15T04:00:31;99270.88;;;11.30;84.75
6216;BME280;3141;49.234;9.326;2022-11-15T04:01:13;99274.53;;;11.29;84.82
6216;BME280;3141;49.234;9.326;2022-11-15T04:01:56;99273.19;;;11.33;84.68
6216;BME280;3141;49.234;9.326;2022-11-15T04:02:38;99269.38;;;11.36;84.60
6216;BME280;3141;49.234;9.326;2022-11-15T04:03:20;99266.06;;;11.34;84.62
6216;BME280;3141;49.234;9.326;2022-11-15T04:04:03;99263.59;;;11.32;84.40
6216;BME280;3141;49.234;9.326;2022-11-15T04:04:45;99262.63;;;11.33;84.47
6216;BME280;3141;49.234;9.326;2022-11-15T04:05:27;99259.97;;;11.33;84.35
6216;BME280;3141;49.234;9.326;2022-11-15T04:06:10;99270.22;;;11.36;84.29
6216;BME280;3141;49.234;9.326;2022-11-15T04:06:52;99269.91;;;11.31;83.95
6216;BME280;3141;49.234;9.326;2022-11-15T04:07:34;99268.22;;;11.30;83.86
6216;BME280;3141;49.234;9.326;2022-11-15T04:08:17;99267.59;;;11.28;84.11
6216;BME280;3141;49.234;9.326;2022-11-15T04:08:59;99265.25;;;11.25;84.03
6216;BME280;3141;49.234;9.326;2022-11-15T04:09:41;99263.97;;;11.21;83.96
6216;BME280;3141;49.234;9.326;2022-11-15T04:10:43;99269.59;;;11.18;84.56
6216;BME280;3141;49.234;9.326;2022-11-15T04:11:25;99260.66;;;11.11;84.41
6216;BME280;3141;49.234;9.326;2022-11-15T04:12:07;99257.09;;;11.04;84.66
6216;BME280;3141;49.234;9.326;2022-11-15T04:12:50;99262.03;;;10.99;84.99
6216;BME280;3141;49.234;9.326;2022-11-15T04:13:32;99257.22;;;11.03;85.01
6216;BME280;3141;49.234;9.326;2022-11-15T04:14:14;99255.25;;;11.05;84.83
6216;BME280;3141;49.234;9.326;2022-11-15T04:15:01;99266.81;;;11.04;84.89
6216;BME280;3141;49.234;9.326;2022-11-15T04:15:49;99259.88;;;11.03;84.90
6216;BME280;3141;49.234;9.326;2022-11-15T04:16:32;99267.50;;;11.06;84.68
6216;BME280;3141;49.234;9.326;2022-11-15T04:17:14;99276.44;;;10.97;85.17
6216;BME280;3141;49.234;9.326;2022-11-15T04:17:57;99269.31;;;10.97;85.49
6216;BME280;3141;49.234;9.326;2022-11-15T04:18:39;99271.63;;;11.00;85.10
6216;BME280;3141;49.234;9.326;2022-11-15T04:19:21;99266.66;;;11.05;85.04
6216;BME280;3141;49.234;9.326;2022-11-15T04:20:25;99269.16;;;10.99;85.33
6216;BME280;3141;49.234;9.326;2022-11-15T04:21:27;99270.63;;;11.09;85.27
6216;BME280;3141;49.234;9.326;2022-11-15T04:22:27;99267.16;;;11.09;84.92
6216;BME280;3141;49.234;9.326;2022-11-15T04:23:28;99263.19;;;11.13;84.68
6216;BME280;3141;49.234;9.326;2022-11-15T04:24:29;99259.19;;;11.17;84.88
6216;BME280;3141;49.234;9.326;2022-11-15T04:25:11;99265.78;;;11.21;84.56
6216;BME280;3141;49.234;9.326;2022-11-15T04:25:55;99257.69;;;11.22;84.51
6216;BME280;3141;49.234;9.326;2022-11-15T04:26:37;99263.31;;;11.19;84.61
6216;BME280;3141;49.234;9.326;2022-11-15T04:27:20;99262.31;;;11.20;84.42
6216;BME280;3141;49.234;9.326;2022-11-15T04:28:02;99266.63;;;11.13;84.88
6216;BME280;3141;49.234;9.326;2022-11-15T04:28:45;99263.66;;;11.16;84.94
6216;BME280;3141;49.234;9.326;2022-11-15T04:29:46;99258.16;;;11.26;84.25
6216;BME280;3141;49.234;9.326;2022-11-15T04:30:28;99259.31;;;11.23;84.32
6216;BME280;3141;49.234;9.326;2022-11-15T04:31:11;99256.53;;;11.25;83.92
6216;BME280;3141;49.234;9.326;2022-11-15T04:31:53;99253.09;;;11.16;84.27
6216;BME280;3141;49.234;9.326;2022-11-15T04:32:35;99255.72;;;11.16;84.49
6216;BME280;3141;49.234;9.326;2022-11-15T04:33:18;99258.03;;;11.19;84.67
6216;BME280;3141;49.234;9.326;2022-11-15T04:34:00;99254.38;;;11.20;84.83
6216;BME280;3141;49.234;9.326;2022-11-15T04:34:42;99263.66;;;11.16;84.87
6216;BME280;3141;49.234;9.326;2022-11-15T04:35:25;99265.47;;;11.16;84.94
6216;BME280;3141;49.234;9.326;2022-11-15T04:36:07;99269.59;;;11.18;84.89
6216;BME280;3141;49.234;9.326;2022-11-15T04:37:08;99269.44;;;11.20;84.85
6216;BME280;3141;49.234;9.326;2022-11-15T04:37:57;99269.59;;;11.26;84.55
6216;BME280;3141;49.234;9.326;2022-11-15T04:38:40;99261.34;;;11.21;84.73